sensor_id;sensor_type;location;lat;lon;timestamp;temperature;humidity
20315;DHT22;10315;50.958;13.080;2023-02-15T00:07:14;0.70;99.90
20315;DHT22;10315;50.958;13.080;2023-02-15T00:17:17;0.70;99.90
20315;DHT22;10315;50.958;13.080;2023-02-15T00:27:19;0.80;99.90
20315;DHT22;10315;50.958;13.080;2023-02-15T00:37:22;0.70;99.90
20315;DHT22;10315;50.958;13.080;2023-02-15T00:47:23;0.70;99.90
20315;DHT22;10315;50.958;13.080;2023-02-15T00:57:26;0.60;99.90
20315;DHT22;10315;50.958;13.080;2023-02-15T01:07:28;0.50;99.90
20315;DHT22;10315;50.958;13.080;2023-02-15T01:17:32;0.40;99.90
20315;DHT22;10315;50.958;13.080;2023-02-15T01:27:33;0.30;99.90
20315;DHT22;10315;50.958;13.080;2023-02-15T01:37:36;0.50;99.90
20315;DHT22;10315;50.958;13.080;2023-02-15T01:47:48;0.50;99.90
20315;DHT22;10315;50.958;13.080;2023-02-15T01:57:52;0.50;99.90
20315;DHT22;10315;50.958;13.080;2023-02-15T02:07:57;0.20;99.90
20315;DHT22;10315;50.958;13.080;2023-02-15T02:18:19;0.10;99.90
20315;DHT22;10315;50.958;13.080;2023-02-15T02:28:38;0.30;99.90
20315;DHT22;10315;50.958;13.080;2023-02-15T02:38:56;0.30;99.90
20315;DHT22;10315;50.958;13.080;2023-02-15T02:49:01;0.30;99.90
20315;DHT22;10315;50.958;13.080;2023-02-15T02:59:08;0.30;99.90
20315;DHT22;10315;50.958;13.080;2023-02-15T03:09:14;0.40;99.90
20315;DHT22;10315;50.958;13.080;2023-02-15T03:19:23;0.30;99.90
20315;DHT22;10315;50.958;13.080;2023-02-15T03:29:26;0.20;99.90
20315;DHT22;10315;50.958;13.080;2023-02-15T03:39:33;0.00;99.90
20315;DHT22;10315;50.958;13.080;2023-02-15T03:49:42;0.10;99.90
20315;DHT22;10315;50.958;13.080;2023-02-15T03:59:47;0.00;99.90
20315;DHT22;10315;50.958;13.080;2023-02-15T04:10:09;0.20;99.90
20315;DHT22;10315;50.958;13.080;2023-02-15T04:20:34;0.60;99.90
20315;DHT22;10315;50.958;13.080;2023-02-15T04:30:54;0.90;99.90
20315;DHT22;10315;50.958;13.080;2023-02-15T04:40:57;0.60;99.90
20315;DHT22;10315;50.958;13.080;2023-02-15T04:50:58;0.30;99.90
20315;DHT22;10315;50.958;13.080;2023-02-15T05:01:01;0.60;99.90
20315;DHT22;10315;50.958;13.080;2023-02-15T05:11:03;0.40;99.90
20315;DHT22;10315;50.958;13.080;2023-02-15T05:21:06;0.10;99.90
20315;DHT22;10315;50.958;13.080;2023-02-15T05:31:10;-0.20;99.90
20315;DHT22;10315;50.958;13.080;2023-02-15T05:41:14;-0.20;99.90
20315;DHT22;10315;50.958;13.080;2023-02-15T05:51:15;-0.10;99.90
20315;DHT22;10315;50.958;13.080;2023-02-15T06:01:19;-0.10;99.90
20315;DHT22;10315;50.958;13.080;2023-02-15T06:11:22;0.10;99.90
20315;DHT22;10315;50.958;13.080;2023-02-15T06:21:25;0.30;99.90
20315;DHT22;10315;50.958;13.080;2023-02-15T06:31:26;0.10;99.90
20315;DHT22;10315;50.958;13.080;2023-02-15T06:41:29;-0.10;99.90
20315;DHT22;10315;50.958;13.080;2023-02-15T06:51:31;-0.20;99.90
20315;DHT22;10315;50.958;13.080;2023-02-15T07:01:35;0.00;99.90
20315;DHT22;10315;50.958;13.080;2023-02-15T07:11:38;0.40;99.90
20315;DHT22;10315;50.958;13.080;2023-02-15T07:21:58;0.60;99.90
20315;DHT22;10315;50.958;13.080;2023-02-15T07:32:00;0.70;99.90
20315;DHT22;10315;50.958;13.080;2023-02-15T07:42:03;1.10;99.90
20315;DHT22;10315;50.958;13.080;2023-02-15T07:52:04;4.10;99.90
20315;DHT22;10315;50.958;13.080;2023-02-15T08:02:10;12.50;99.90
20315;DHT22;10315;50.958;13.080;2023-02-15T08:12:12;15.20;95.30
20315;DHT22;10315;50.958;13.080;2023-02-15T08:22:15;17.30;86.10
20315;DHT22;10315;50.958;13.080;2023-02-15T08:32:17;17.80;85.30
20315;DHT22;10315;50.958;13.080;2023-02-15T08:42:20;18.50;81.80
20315;DHT22;10315;50.958;13.080;2023-02-15T08:52:22;14.20;88.50
20315;DHT22;10315;50.958;13.080;2023-02-15T09:02:24;11.00;99.90
20315;DHT22;10315;50.958;13.080;2023-02-15T09:12:26;9.80;99.90
20315;DHT22;10315;50.958;13.080;2023-02-15T09:22:29;10.40;99.90
20315;DHT22;10315;50.958;13.080;2023-02-15T09:32:31;10.90;99.90
20315;DHT22;10315;50.958;13.080;2023-02-15T09:42:58;10.80;99.90
20315;DHT22;10315;50.958;13.080;2023-02-15T09:53:16;11.40;99.90
20315;DHT22;10315;50.958;13.080;2023-02-15T10:03:43;11.60;99.90
20315;DHT22;10315;50.958;13.080;2023-02-15T10:13:53;11.90;99.90
20315;DHT22;10315;50.958;13.080;2023-02-15T10:24:16;12.10;99.90
20315;DHT22;10315;50.958;13.080;2023-02-15T10:34:24;12.50;99.50
20315;DHT22;10315;50.958;13.080;2023-02-15T10:44:41;12.70;95.50
20315;DHT22;10315;50.958;13.080;2023-02-15T10:54:52;13.40;99.50
20315;DHT22;10315;50.958;13.080;2023-02-15T11:05:07;14.10;94.60
20315;DHT22;10315;50.958;13.080;2023-02-15T11:15:28;14.40;93.90
20315;DHT22;10315;50.958;13.080;2023-02-15T11:25:34;14.90;91.10
20315;DHT22;10315;50.958;13.080;2023-02-15T11:35:40;14.60;99.40
20315;DHT22;10315;50.958;13.080;2023-02-15T11:45:49;14.50;99.90
20315;DHT22;10315;50.958;13.080;2023-02-15T11:55:51;13.90;99.90
20315;DHT22;10315;50.958;13.080;2023-02-15T12:06:00;13.90;99.90
20315;DHT22;10315;50.958;13.080;2023-02-15T12:16:06;14.20;99.90
20315;DHT22;10315;50.958;13.080;2023-02-15T12:26:14;14.30;99.90
20315;DHT22;10315;50.958;13.080;2023-02-15T12:36:19;14.20;99.90
20315;DHT22;10315;50.958;13.080;2023-02-15T12:46:24;14.50;99.90
20315;DHT22;10315;50.958;13.080;2023-02-15T12:56:27;14.50;99.90
20315;DHT22;10315;50.958;13.080;2023-02-15T13:06:32;14.50;99.90
20315;DHT22;10315;50.958;13.080;2023-02-15T13:16:37;14.30;99.90
20315;DHT22;10315;50.958;13.080;2023-02-15T13:26:41;14.10;99.90
20315;DHT22;10315;50.958;13.080;2023-02-15T13:36:51;14.20;99.90
20315;DHT22;10315;50.958;13.080;2023-02-15T13:47:06;14.30;97.80
20315;DHT22;10315;50.958;13.080;2023-02-15T13:57:25;14.20;99.40
20315;DHT22;10315;50.958;13.080;2023-02-15T14:07:49;14.20;99.90
20315;DHT22;10315;50.958;13.080;2023-02-15T14:18:01;14.20;94.10
20315;DHT22;10315;50.958;13.080;2023-02-15T14:28:11;13.70;96.10
20315;DHT22;10315;50.958;13.080;2023-02-15T14:38:17;13.20;94.40
20315;DHT22;10315;50.958;13.080;2023-02-15T14:48:28;13.30;98.60
20315;DHT22;10315;50.958;13.080;2023-02-15T14:58:29;13.50;95.70
20315;DHT22;10315;50.958;13.080;2023-02-15T15:08:36;13.50;99.90
20315;DHT22;10315;50.958;13.080;2023-02-15T15:18:44;13.10;95.00
20315;DHT22;10315;50.958;13.080;2023-02-15T15:29:03;12.50;91.70
20315;DHT22;10315;50.958;13.080;2023-02-15T15:39:14;12.00;92.00
20315;DHT22;10315;50.958;13.080;2023-02-15T15:49:27;11.70;92.80
20315;DHT22;10315;50.958;13.080;2023-02-15T15:59:31;11.50;91.30
20315;DHT22;10315;50.958;13.080;2023-02-15T16:09:34;11.00;93.10
20315;DHT22;10315;50.958;13.080;2023-02-15T16:19:38;10.50;94.90
20315;DHT22;10315;50.958;13.080;2023-02-15T16:29:42;9.60;97.80
20315;DHT22;10315;50.958;13.080;2023-02-15T16:39:47;9.10;99.90
20315;DHT22;10315;50.958;13.080;2023-02-15T16:49:52;8.60;99.90
20315;DHT22;10315;50.958;13.080;2023-02-15T16:59:57;8.20;99.90
20315;DHT22;10315;50.958;13.080;2023-02-15T17:10:15;8.20;99.90
20315;DHT22;10315;50.958;13.080;2023-02-15T17:20:27;7.90;99.90
20315;DHT22;10315;50.958;13.080;2023-02-15T17:30:32;7.80;99.90
20315;DHT22;10315;50.958;13.080;2023-02-15T17:40:35;8.00;99.90
20315;DHT22;10315;50.958;13.080;2023-02-15T17:50:38;7.80;99.90
20315;DHT22;10315;50.958;13.080;2023-02-15T18:00:42;7.80;99.90
20315;DHT22;10315;50.958;13.080;2023-02-15T18:11:03;7.90;99.90
20315;DHT22;10315;50.958;13.080;2023-02-15T18:21:23;7.40;99.90
20315;DHT22;10315;50.958;13.080;2023-02-15T18:31:26;7.20;99.90
20315;DHT22;10315;50.958;13.080;2023-02-15T18:41:28;7.10;99.90
20315;DHT22;10315;50.958;13.080;2023-02-15T18:51:40;6.90;99.90
20315;DHT22;10315;50.958;13.080;2023-02-15T19:01:42;6.60;99.90
20315;DHT22;10315;50.958;13.080;2023-02-15T19:11:49;6.20;99.90
20315;DHT22;10315;50.958;13.080;2023-02-15T19:21:51;6.00;99.90
20315;DHT22;10315;50.958;13.080;2023-02-15T19:31:55;5.80;99.90
20315;DHT22;10315;50.958;13.080;2023-02-15T19:41:57;5.70;99.90
20315;DHT22;10315;50.958;13.080;2023-02-15T19:52:00;5.60;99.90
20315;DHT22;10315;50.958;13.080;2023-02-15T20:02:01;5.50;99.90
20315;DHT22;10315;50.958;13.080;2023-02-15T20:12:15;5.30;99.90
20315;DHT22;10315;50.958;13.080;2023-02-15T20:22:22;5.10;99.90
20315;DHT22;10315;50.958;13.080;2023-02-15T20:32:26;4.80;99.90
20315;DHT22;10315;50.958;13.080;2023-02-15T20:42:27;4.60;99.90
20315;DHT22;10315;50.958;13.080;2023-02-15T20:52:30;4.50;99.90
20315;DHT22;10315;50.958;13.080;2023-02-15T21:02:32;4.20;99.90
20315;DHT22;10315;50.958;13.080;2023-02-15T21:12:35;4.00;99.90
20315;DHT22;10315;50.958;13.080;2023-02-15T21:22:36;4.00;99.90
20315;DHT22;10315;50.958;13.080;2023-02-15T21:32:41;4.20;99.90
20315;DHT22;10315;50.958;13.080;2023-02-15T21:42:43;4.10;99.90
20315;DHT22;10315;50.958;13.080;2023-02-15T21:53:06;3.60;99.90
20315;DHT22;10315;50.958;13.080;2023-02-15T22:03:10;3.40;99.90
20315;DHT22;10315;50.958;13.080;2023-02-15T22:13:15;3.60;99.90
20315;DHT22;10315;50.958;13.080;2023-02-15T22:23:17;3.70;99.90
20315;DHT22;10315;50.958;13.080;2023-02-15T22:33:23;3.70;99.90
20315;DHT22;10315;50.958;13.080;2023-02-15T22:43:33;3.60;99.90
20315;DHT22;10315;50.958;13.080;2023-02-15T22:53:51;3.40;99.90
20315;DHT22;10315;50.958;13.080;2023-02-15T23:03:53;3.30;99.90
20315;DHT22;10315;50.958;13.080;2023-02-15T23:13:56;3.30;99.90
20315;DHT22;10315;50.958;13.080;2023-02-15T23:24:00;3.00;99.90
20315;DHT22;10315;50.958;13.080;2023-02-15T23:34:14;3.10;99.90
20315;DHT22;10315;50.958;13.080;2023-02-15T23:44:17;2.70;99.90
20315;DHT22;10315;50.958;13.080;2023-02-15T23:54:22;2.60;99.90
